Accueil
METAR-TAF:

METAR-TAF

Aéroports :

Rouen, France

Aéroport Rouen Vallée de Seine

latitude: 49-23N, longitude: 001-11E, altitude: 157 m

Observation

Le bulletin a été fait il y a 27 minutes, à 01:30 UTC
Vent 8 kt de ouest/sud-ouest
Température 13°C
Humidité 77%
Pression 1020 hPa

METAR: LFOP 240130Z AUTO 25008KT //// R22///// // NSC 13/09 Q1020

Heure: 03:57 (01:57 UTC)

Prévision

Le bulletin a été fait il y a 8 heures et 57 minutes, à 17:00 UTC
Prévision valable du 23 à 18 UTC au 24 à 18 UTC
Vent 8 kt de ouest
Visibilité 10 km ou plus
Nuages fragmentés à une hauteur de 3000 ft
Temporairement
du 24 à 00 UTC au 24 à 07 UTC
Nuages fragmentés à une hauteur de 800 ft

TAF: LFOP 231700Z 2318/2418 28008KT 9999 BKN030 TEMPO 2400/2407 BKN008

Observations et prévisions météorologiques de plus de 4000 aéroports (messages METAR et TAF).

Les stations disponibles sont représentées par des disques jaunes et rouges sur la carte.

Passer la souris dessus pour voir le nom de la station.

Cliquer dessus pour voir les observations et prévisions météorologiques.

Pour changer de carte: cliquez sur les boutons verts avec une croix noire pour zoomer, sur le bouton vert avec un tiret pour effectuer un zoom arrière, ou sur les flèches vertes pour les cartes adjacentes.


METAR-TAF: